デリー の空港の天気 - METARとTAF

インディラ・ガンディー国際空港 ( VIDP / DEL ) - インド デリー
飛行場実況気象(Metar)
観測時間05/29 22:30 IST (05/29 17:00 UTC)
風向・風速南東 2m/s
視程3000m
天気現象もや
全天の4割程度の雲 雲底高度 1070m
少しの雲 雲底高度 1220m
全天の8割程度の雲 雲底高度 3050m
気温26℃
湿度89%
気圧1005hPa
METARVIDP 291700Z 14004KT 3000 BR SCT035 FEW040CB BKN100 26/24 Q1005 NOSIG
過去の天気等 Google飛行場航空写真 Wunderground天気予報

過去48時間のMETAR

飛行場予報(TAF)
発表時間: 5/29 19:30 IST (5/29 14:00 UTC)
予報対象時間: 29日20時 IST ~ 30日5時 IST
風向・風速西南西 5m/s 瞬間風速 10m/s
視程2000m
天気現象弱い雷雨
全天の4割程度の雲 雲底高度 1070m
少しの積乱雲 雲底高度 1220m
全天を覆う雲 雲底高度 2740m
29日19時 IST ~ 30日1時 IST に徐々に
風向・風速西北西 4m/s 瞬間風速 9m/s
視程1500m
天気現象弱い雷雨
全天の4割程度の雲 雲底高度 1070m
少しの積乱雲 雲底高度 1220m
全天を覆う雲 雲底高度 2740m
TAF VIDP 291400Z 2915/2924 24010G20KT 2000 -TSRA SCT035 FEW040CB OVC090
BECMG 2914/2920 29008G18KT 1500 -TSRA SCT035 FEW040CB OVC090